createdAt,value
2018-03-19T00:00:52.162Z,99851.34
2018-03-19T00:03:21.526Z,99855.02
2018-03-19T00:05:51.505Z,99852.41
2018-03-19T00:08:21.729Z,99851.84
2018-03-19T00:10:51.128Z,99847.59
2018-03-19T00:13:20.320Z,99850.00
2018-03-19T00:15:49.566Z,99852.79
2018-03-19T00:18:18.801Z,99852.20
2018-03-19T00:20:48.001Z,99852.77
2018-03-19T00:23:17.259Z,99839.59
2018-03-19T00:25:46.459Z,99844.32
2018-03-19T00:28:15.701Z,99847.23
2018-03-19T00:30:45.000Z,99845.45
2018-03-19T00:33:14.223Z,99845.62
2018-03-19T00:35:43.462Z,99840.64
2018-03-19T00:38:12.758Z,99845.30
2018-03-19T00:40:41.971Z,99845.98
2018-03-19T00:43:11.177Z,99851.41
2018-03-19T00:45:40.410Z,99849.70
2018-03-19T00:48:09.593Z,99854.52
2018-03-19T00:50:38.794Z,99857.28
2018-03-19T00:53:07.996Z,99846.42
2018-03-19T00:55:37.198Z,99849.41
2018-03-19T00:58:07.168Z,99848.59
2018-03-19T01:00:36.399Z,99834.95
2018-03-19T01:03:05.634Z,99837.48
2018-03-19T01:05:34.995Z,99832.83
2018-03-19T01:08:04.231Z,99830.16
2018-03-19T01:10:34.199Z,99838.73
2018-03-19T01:13:03.416Z,99832.60
2018-03-19T01:15:32.688Z,99835.77
2018-03-19T01:18:01.888Z,99830.83
2018-03-19T01:20:31.125Z,99834.77
2018-03-19T01:23:00.506Z,99832.76
2018-03-19T01:25:29.768Z,99837.27
2018-03-19T01:27:59.143Z,99829.77
2018-03-19T01:30:29.139Z,99830.20
2018-03-19T01:32:59.136Z,99838.67
2018-03-19T01:35:28.382Z,99837.17
2018-03-19T01:37:57.653Z,99837.83
2018-03-19T01:40:27.838Z,99835.36
2018-03-19T01:42:57.040Z,99844.92
2018-03-19T01:45:26.481Z,99831.95
2018-03-19T01:47:55.703Z,99829.54
2018-03-19T01:50:24.975Z,99826.73
2018-03-19T01:52:54.983Z,99825.47
2018-03-19T01:55:24.987Z,99820.81
2018-03-19T01:57:54.255Z,99820.68
2018-03-19T02:00:23.450Z,99818.58
2018-03-19T02:02:53.617Z,99831.19
2018-03-19T02:05:22.839Z,99822.64
2018-03-19T02:07:52.063Z,99820.78
2018-03-19T02:10:21.306Z,99831.08
2018-03-19T02:12:50.639Z,99817.92
2018-03-19T02:15:19.898Z,99822.30
2018-03-19T02:17:49.142Z,99825.73
2018-03-19T02:20:19.099Z,99827.14
2018-03-19T02:22:48.398Z,99820.95
2018-03-19T02:25:17.595Z,99818.89
2018-03-19T02:27:47.108Z,99817.94
2018-03-19T02:30:16.338Z,99825.97
2018-03-19T02:32:46.535Z,99820.11
2018-03-19T02:35:15.790Z,99821.16
2018-03-19T02:37:45.027Z,99824.59
2018-03-19T02:40:16.626Z,99828.45
2018-03-19T02:42:45.935Z,99826.59
2018-03-19T02:45:15.280Z,99826.59
2018-03-19T02:47:44.608Z,99827.13
2018-03-19T02:50:14.666Z,99821.13
2018-03-19T02:52:43.881Z,99825.12
2018-03-19T02:55:13.146Z,99830.12
2018-03-19T02:57:42.400Z,99835.13
2018-03-19T03:00:11.642Z,99832.08
2018-03-19T03:02:40.894Z,99836.41
2018-03-19T03:05:10.591Z,99837.58
2018-03-19T03:07:39.823Z,99839.43
2018-03-19T03:10:09.836Z,99841.16
2018-03-19T03:12:39.804Z,99844.56
2018-03-19T03:15:09.027Z,99851.39
2018-03-19T03:17:39.031Z,99851.61
2018-03-19T03:20:08.268Z,99858.74
2018-03-19T03:22:38.272Z,99859.52
2018-03-19T03:25:07.541Z,99858.87
2018-03-19T03:27:37.427Z,99850.28
2018-03-19T03:30:06.679Z,99845.55
2018-03-19T03:32:36.758Z,99844.22
2018-03-19T03:35:06.001Z,99851.77
2018-03-19T03:37:35.438Z,99857.66
2018-03-19T03:40:04.706Z,99846.82
2018-03-19T03:42:34.708Z,99848.89
2018-03-19T03:45:03.945Z,99849.35
2018-03-19T03:47:33.214Z,99857.44
2018-03-19T03:50:02.462Z,99849.29
2018-03-19T03:52:31.915Z,99846.78
2018-03-19T03:55:01.147Z,99847.55
2018-03-19T03:57:30.463Z,99845.92
2018-03-19T03:59:59.678Z,99853.48
2018-03-19T04:02:29.083Z,99850.92
2018-03-19T04:04:58.319Z,99850.39
2018-03-19T04:07:28.329Z,99857.66
2018-03-19T04:09:58.326Z,99857.44
2018-03-19T04:12:27.627Z,99859.94
2018-03-19T04:14:56.863Z,99857.70
2018-03-19T04:17:26.067Z,99854.61
2018-03-19T04:19:55.303Z,99853.59
2018-03-19T04:22:24.519Z,99855.73
2018-03-19T04:24:53.795Z,99860.27
2018-03-19T04:27:23.079Z,99858.35
2018-03-19T04:29:52.334Z,99859.28
2018-03-19T04:32:22.317Z,99855.70
2018-03-19T04:34:51.606Z,99851.84
2018-03-19T04:37:21.706Z,99846.34
2018-03-19T04:39:50.911Z,99851.95
2018-03-19T04:42:20.106Z,99843.38
2018-03-19T04:44:49.472Z,99855.09
2018-03-19T04:47:19.517Z,99841.63
2018-03-19T04:49:48.783Z,99846.41
2018-03-19T04:52:18.746Z,99849.72
2018-03-19T04:54:48.714Z,99849.89
2018-03-19T04:57:17.937Z,99853.34
2018-03-19T04:59:47.174Z,99857.61
2018-03-19T05:02:16.546Z,99854.63
2018-03-19T05:04:45.780Z,99854.31
2018-03-19T05:07:15.063Z,99863.00
2018-03-19T05:09:44.277Z,99862.41
2018-03-19T05:12:13.640Z,99860.47
2018-03-19T05:14:42.942Z,99862.38
2018-03-19T05:17:12.929Z,99864.05
2018-03-19T05:19:42.899Z,99868.59
2018-03-19T05:22:12.117Z,99865.31
2018-03-19T05:24:41.413Z,99867.72
2018-03-19T05:27:10.637Z,99871.38
2018-03-19T05:29:39.896Z,99875.82
2018-03-19T05:32:09.146Z,99876.66
2018-03-19T05:34:38.355Z,99871.41
2018-03-19T05:37:07.786Z,99879.66
2018-03-19T05:39:37.035Z,99883.31
2018-03-19T05:42:07.022Z,99884.23
2018-03-19T05:44:36.237Z,99882.96
2018-03-19T05:47:05.587Z,99882.28
2018-03-19T05:49:34.827Z,99879.75
2018-03-19T05:52:04.889Z,99880.31
2018-03-19T05:54:34.151Z,99878.83
2018-03-19T05:57:04.154Z,99881.75
2018-03-19T05:59:33.393Z,99890.88
2018-03-19T06:02:02.655Z,99892.96
2018-03-19T06:04:32.074Z,99894.86
2018-03-19T06:07:01.296Z,99895.66
2018-03-19T06:09:30.525Z,99900.81
2018-03-19T06:11:59.763Z,99908.56
2018-03-19T06:14:29.757Z,99904.42
2018-03-19T06:16:59.034Z,99902.69
2018-03-19T06:19:28.364Z,99904.42
2018-03-19T06:21:57.618Z,99903.94
2018-03-19T06:24:26.863Z,99908.15
2018-03-19T06:26:56.099Z,99914.30
2018-03-19T06:29:25.309Z,99919.84
2018-03-19T06:31:54.520Z,99918.36
2018-03-19T06:34:23.789Z,99929.94
2018-03-19T06:36:53.002Z,99921.58
2018-03-19T06:39:22.256Z,99924.46
2018-03-19T06:41:51.447Z,99924.17
2018-03-19T06:44:21.509Z,99925.78
2018-03-19T06:46:50.767Z,99923.86
2018-03-19T06:49:20.884Z,99926.11
2018-03-19T06:51:50.191Z,99927.28
2018-03-19T06:54:20.186Z,99933.78
2018-03-19T06:56:49.425Z,99941.09
2018-03-19T06:59:18.666Z,99939.84
2018-03-19T07:01:48.030Z,99948.48
2018-03-19T07:04:17.251Z,99943.74
2018-03-19T07:06:46.498Z,99948.37
2018-03-19T07:09:16.464Z,99946.87
2018-03-19T07:11:46.005Z,99945.38
2018-03-19T07:14:15.285Z,99944.56
2018-03-19T07:16:44.497Z,99941.48
2018-03-19T07:19:13.745Z,99945.55
2018-03-19T07:21:43.836Z,99952.33
2018-03-19T07:24:13.938Z,99947.09
2018-03-19T07:26:43.162Z,99952.12
2018-03-19T07:29:12.406Z,99942.36
2018-03-19T07:31:41.637Z,99939.96
2018-03-19T07:34:10.860Z,99942.86
2018-03-19T07:36:40.826Z,99941.02
2018-03-19T07:39:10.842Z,99944.28
2018-03-19T07:41:40.083Z,99937.62
2018-03-19T07:44:10.079Z,99947.52
2018-03-19T07:46:39.292Z,99949.38
2018-03-19T07:49:09.293Z,99946.84
2018-03-19T07:51:39.289Z,99950.55
2018-03-19T07:54:08.823Z,99950.80
2018-03-19T07:56:38.802Z,99956.80
2018-03-19T07:59:08.158Z,99958.77
2018-03-19T08:01:38.195Z,99960.22
2018-03-19T08:04:07.424Z,99965.66
2018-03-19T08:06:36.678Z,99956.36
2018-03-19T08:09:05.879Z,99959.57
2018-03-19T08:11:35.137Z,99965.75
2018-03-19T08:14:04.369Z,99965.88
2018-03-19T08:16:33.580Z,99970.08
2018-03-19T08:19:02.833Z,99966.45
2018-03-19T08:21:32.911Z,99974.28
2018-03-19T08:24:02.199Z,99969.05
2018-03-19T08:26:31.394Z,99970.14
2018-03-19T08:29:00.623Z,99963.36
2018-03-19T08:31:29.842Z,99963.59
2018-03-19T08:33:59.931Z,99978.56
2018-03-19T08:36:29.399Z,99972.05
2018-03-19T08:38:58.655Z,99973.95
2018-03-19T08:41:27.940Z,99981.83
2018-03-19T08:43:57.142Z,99985.05
2018-03-19T08:46:26.375Z,99971.11
2018-03-19T08:48:56.343Z,99966.76
2018-03-19T08:51:25.599Z,99973.30
2018-03-19T08:53:55.055Z,99963.41
2018-03-19T08:56:24.307Z,99972.42
2018-03-19T08:58:53.517Z,99969.19
2018-03-19T09:01:22.750Z,99973.63
2018-03-19T09:03:51.970Z,99973.30
2018-03-19T09:06:22.021Z,99967.20
2018-03-19T09:08:51.948Z,99968.05
2018-03-19T09:11:21.159Z,99967.85
2018-03-19T09:13:50.384Z,99964.26
2018-03-19T09:16:19.624Z,99964.75
2018-03-19T09:18:48.827Z,99964.98
2018-03-19T09:21:18.099Z,99958.01
2018-03-19T09:23:48.228Z,99965.22
2018-03-19T09:26:17.659Z,99966.08
2018-03-19T09:28:47.642Z,99963.89
2018-03-19T09:31:17.756Z,99974.38
2018-03-19T09:33:47.743Z,99982.64
2018-03-19T09:36:16.930Z,99976.17
2018-03-19T09:38:47.033Z,99978.42
2018-03-19T09:41:16.288Z,99984.52
2018-03-19T09:43:45.508Z,99981.89
2018-03-19T09:46:14.719Z,99978.95
2018-03-19T09:48:44.205Z,99974.71
2018-03-19T09:51:19.874Z,99993.52
2018-03-19T09:53:49.114Z,99983.99
2018-03-19T09:56:18.372Z,99978.91
2018-03-19T09:58:47.777Z,99996.87
2018-03-19T10:01:16.977Z,99981.80
2018-03-19T10:03:46.403Z,99979.32
2018-03-19T10:06:16.040Z,99979.30
2018-03-19T10:08:46.051Z,99983.45
2018-03-19T10:11:16.035Z,99985.83
2018-03-19T10:13:45.263Z,99983.39
2018-03-19T10:16:15.243Z,99978.77
2018-03-19T10:18:44.501Z,99990.92
2018-03-19T10:21:13.947Z,99991.95
2018-03-19T10:23:43.215Z,99985.94
2018-03-19T10:26:12.446Z,99992.02
2018-03-19T10:28:41.648Z,99996.35
2018-03-19T10:31:11.069Z,99993.06
2018-03-19T10:33:41.106Z,99981.27
2018-03-19T10:36:10.332Z,99988.13
2018-03-19T10:38:39.603Z,99985.09
2018-03-19T10:41:08.789Z,99990.91
2018-03-19T10:43:38.783Z,99987.98
2018-03-19T10:46:08.077Z,99988.21
2018-03-19T10:48:37.310Z,99991.14
2018-03-19T10:51:06.536Z,99993.78
2018-03-19T10:53:35.986Z,99984.03
2018-03-19T10:56:05.210Z,99987.37
2018-03-19T10:58:34.422Z,99978.77
2018-03-19T11:01:09.123Z,99991.02
2018-03-19T11:03:39.705Z,99977.89
2018-03-19T11:06:14.347Z,99991.28
2018-03-19T11:08:50.470Z,99983.58
2018-03-19T11:11:19.742Z,99985.21
2018-03-19T11:13:49.930Z,99987.48
2018-03-19T11:16:19.214Z,99988.11
2018-03-19T11:18:48.491Z,99986.37
2018-03-19T11:21:18.875Z,99985.61
2018-03-19T11:23:48.861Z,99987.19
2018-03-19T11:26:18.063Z,99979.43
2018-03-19T11:28:47.277Z,99974.25
2018-03-19T11:31:16.484Z,99974.94
2018-03-19T11:33:46.509Z,99981.94
2018-03-19T11:36:15.723Z,99969.48
2018-03-19T11:38:45.686Z,99973.23
2018-03-19T11:41:15.941Z,99981.38
2018-03-19T11:43:45.159Z,99969.78
2018-03-19T11:46:14.383Z,99966.72
2018-03-19T11:48:43.602Z,99975.58
2018-03-19T11:51:12.819Z,99973.19
2018-03-19T11:53:42.364Z,99971.98
2018-03-19T11:56:11.666Z,99974.95
2018-03-19T11:58:40.911Z,99972.00
2018-03-19T12:01:10.437Z,99968.93
2018-03-19T12:03:40.440Z,99956.23
2018-03-19T12:06:09.653Z,99959.44
2018-03-19T12:08:39.615Z,99968.00
2018-03-19T12:11:08.999Z,99965.61
2018-03-19T12:13:38.204Z,99979.77
2018-03-19T12:16:07.570Z,99969.61
2018-03-19T12:18:37.574Z,99973.48
2018-03-19T12:21:07.536Z,99952.36
2018-03-19T12:23:36.775Z,99947.25
2018-03-19T12:26:06.029Z,99970.55
2018-03-19T12:28:35.227Z,99951.95
2018-03-19T12:31:04.498Z,99949.67
2018-03-19T12:33:34.481Z,99944.58
2018-03-19T12:36:03.951Z,99942.05
2018-03-19T12:38:33.155Z,99942.82
2018-03-19T12:41:02.387Z,99941.19
2018-03-19T12:43:31.602Z,99951.52
2018-03-19T12:46:01.619Z,99939.03
2018-03-19T12:48:30.896Z,99948.42
2018-03-19T12:51:00.154Z,99939.98
2018-03-19T12:53:29.333Z,99950.27
2018-03-19T12:55:58.584Z,99948.00
2018-03-19T12:58:27.890Z,99953.13
2018-03-19T13:00:57.157Z,99944.56
2018-03-19T13:03:26.388Z,99935.71
2018-03-19T13:05:55.731Z,99945.48
2018-03-19T13:08:24.983Z,99942.25
2018-03-19T13:10:54.178Z,99944.00
2018-03-19T13:13:23.684Z,99930.69
2018-03-19T13:15:52.892Z,99945.15
2018-03-19T13:18:22.097Z,99942.75
2018-03-19T13:20:52.070Z,99950.52
2018-03-19T13:23:21.381Z,99937.64
2018-03-19T13:25:50.602Z,99947.17
2018-03-19T13:28:20.586Z,99934.42
2018-03-19T13:30:49.818Z,99929.83
2018-03-19T13:33:19.006Z,99933.69
2018-03-19T13:35:48.222Z,99951.25
2018-03-19T13:38:18.250Z,99935.48
2018-03-19T13:40:48.215Z,99938.34
2018-03-19T13:43:17.435Z,99926.67
2018-03-19T13:45:46.730Z,99929.58
2018-03-19T13:48:16.547Z,99921.77
2018-03-19T13:50:45.747Z,99937.25
2018-03-19T13:53:14.992Z,99925.35
2018-03-19T13:55:44.226Z,99929.62
2018-03-19T13:58:13.778Z,99925.61
2018-03-19T14:00:43.739Z,99937.25
2018-03-19T14:03:13.012Z,99928.56
2018-03-19T14:05:42.295Z,99922.27
2018-03-19T14:08:12.266Z,99920.50
2018-03-19T14:10:41.484Z,99913.74
2018-03-19T14:13:10.683Z,99920.53
2018-03-19T14:15:40.662Z,99919.88
2018-03-19T14:18:09.874Z,99907.96
2018-03-19T14:20:39.082Z,99924.03
2018-03-19T14:23:08.289Z,99912.08
2018-03-19T14:25:37.486Z,99913.38
2018-03-19T14:28:07.472Z,99917.97
2018-03-19T14:30:36.678Z,99906.31
2018-03-19T14:33:06.911Z,99914.24
2018-03-19T14:35:36.930Z,99906.86
2018-03-19T14:38:06.404Z,99905.09
2018-03-19T14:40:35.639Z,99912.43
2018-03-19T14:43:05.705Z,99928.73
2018-03-19T14:45:34.902Z,99921.53
2018-03-19T14:48:04.246Z,99914.97
2018-03-19T14:50:33.605Z,99919.09
2018-03-19T14:53:02.782Z,99919.45
2018-03-19T14:55:32.746Z,99935.38
2018-03-19T14:58:03.899Z,99928.41
2018-03-19T15:00:33.151Z,99926.92
2018-03-19T15:03:02.451Z,99932.83
2018-03-19T15:05:31.687Z,99928.69
2018-03-19T15:08:00.934Z,99931.25
2018-03-19T15:10:30.830Z,99927.53
2018-03-19T15:13:01.338Z,99920.47
2018-03-19T15:15:31.378Z,99926.89
2018-03-19T15:18:00.597Z,99920.33
2018-03-19T15:20:29.866Z,99917.34
2018-03-19T15:22:59.107Z,99925.02
2018-03-19T15:25:28.399Z,99927.94
2018-03-19T15:27:57.581Z,99923.39
2018-03-19T15:30:26.789Z,99937.19
2018-03-19T15:32:55.948Z,99926.59
2018-03-19T15:35:26.000Z,99924.59
2018-03-19T15:37:55.153Z,99934.78
2018-03-19T15:40:24.558Z,99934.64
2018-03-19T15:42:53.763Z,99924.47
2018-03-19T15:45:23.827Z,99931.03
2018-03-19T15:47:53.056Z,99922.89
2018-03-19T15:50:22.298Z,99935.64
2018-03-19T15:52:51.546Z,99929.08
2018-03-19T15:55:20.743Z,99925.83
2018-03-19T15:57:50.035Z,99927.73
2018-03-19T16:00:19.370Z,99929.36
2018-03-19T16:02:49.394Z,99946.22
2018-03-19T16:05:19.367Z,99929.46
2018-03-19T16:07:48.607Z,99936.02
2018-03-19T16:10:18.595Z,99943.70
2018-03-19T16:12:47.815Z,99945.21
2018-03-19T16:15:17.815Z,99940.81
2018-03-19T16:17:47.034Z,99945.38
2018-03-19T16:20:17.022Z,99953.27
2018-03-19T16:22:46.273Z,99945.66
2018-03-19T16:25:15.475Z,99948.45
2018-03-19T16:27:44.713Z,99947.50
2018-03-19T16:30:13.919Z,99947.13
2018-03-19T16:32:44.664Z,99947.67
2018-03-19T16:35:15.453Z,99954.11
2018-03-19T16:37:44.671Z,99947.67
2018-03-19T16:40:13.974Z,99956.81
2018-03-19T16:42:43.226Z,99960.95
2018-03-19T16:45:12.433Z,99963.66
2018-03-19T16:47:42.358Z,99969.95
2018-03-19T16:50:11.549Z,99963.52
2018-03-19T16:52:40.763Z,99972.08
2018-03-19T16:55:09.986Z,99979.08
2018-03-19T16:57:40.044Z,99978.40
2018-03-19T17:00:09.216Z,99985.66
2018-03-19T17:02:39.511Z,99986.73
2018-03-19T17:05:08.772Z,99991.81
2018-03-19T17:07:38.005Z,99995.70
2018-03-19T17:10:07.235Z,99995.72
2018-03-19T17:12:37.216Z,100002.27
2018-03-19T17:15:06.562Z,99999.33
2018-03-19T17:17:36.522Z,100006.45
2018-03-19T17:20:05.806Z,100018.88
2018-03-19T17:22:35.035Z,100023.18
2018-03-19T17:25:04.432Z,100032.27
2018-03-19T17:27:33.663Z,100027.03
2018-03-19T17:30:03.704Z,100030.39
2018-03-19T17:32:33.085Z,100027.45
2018-03-19T17:35:03.179Z,100030.92
2018-03-19T17:37:32.421Z,100036.28
2018-03-19T17:40:01.639Z,100033.72
2018-03-19T17:42:30.978Z,100038.52
2018-03-19T17:45:00.186Z,100048.42
2018-03-19T17:47:30.181Z,100052.05
2018-03-19T17:49:59.437Z,100053.23
2018-03-19T17:52:28.661Z,100050.27
2018-03-19T17:54:57.930Z,100060.44
2018-03-19T17:57:27.187Z,100076.86
2018-03-19T17:59:56.432Z,100071.77
2018-03-19T18:02:25.624Z,100080.56
2018-03-19T18:04:55.722Z,100073.20
2018-03-19T18:07:25.009Z,100082.27
2018-03-19T18:09:54.198Z,100081.88
2018-03-19T18:12:23.623Z,100084.02
2018-03-19T18:14:52.842Z,100085.75
2018-03-19T18:17:22.055Z,100091.47
2018-03-19T18:19:51.291Z,100095.48
2018-03-19T18:22:20.490Z,100100.56
2018-03-19T18:24:50.625Z,100103.60
2018-03-19T18:27:19.834Z,100098.12
2018-03-19T18:29:49.085Z,100102.27
2018-03-19T18:32:18.415Z,100108.55
2018-03-19T18:34:47.640Z,100112.82
2018-03-19T18:37:16.831Z,100110.82
2018-03-19T18:39:46.130Z,100112.13
2018-03-19T18:42:15.330Z,100116.13
2018-03-19T18:44:44.566Z,100122.05
2018-03-19T18:47:13.774Z,100117.59
2018-03-19T18:49:42.983Z,100117.47
2018-03-19T18:52:12.180Z,100118.63
2018-03-19T18:54:41.433Z,100115.20
2018-03-19T18:57:10.632Z,100132.58
2018-03-19T18:59:39.986Z,100125.39
2018-03-19T19:02:09.199Z,100129.63
2018-03-19T19:04:39.228Z,100132.97
2018-03-19T19:07:08.524Z,100127.85
2018-03-19T19:09:38.570Z,100137.03
2018-03-19T19:12:07.811Z,100137.25
2018-03-19T19:14:37.819Z,100133.50
2018-03-19T19:17:07.146Z,100137.08
2018-03-19T19:19:37.122Z,100133.02
2018-03-19T19:22:06.649Z,100135.41
2018-03-19T19:24:35.976Z,100131.36
2018-03-19T19:27:05.217Z,100141.06
2018-03-19T19:29:34.466Z,100143.81
2018-03-19T19:32:03.699Z,100139.39
2018-03-19T19:34:32.925Z,100139.48
2018-03-19T19:37:02.162Z,100148.81
2018-03-19T19:39:32.206Z,100143.03
2018-03-19T19:42:01.466Z,100156.18
2018-03-19T19:44:31.497Z,100151.77
2018-03-19T19:47:01.913Z,100154.42
2018-03-19T19:49:31.887Z,100154.36
2018-03-19T19:52:02.363Z,100157.77
2018-03-19T19:54:35.313Z,100157.30
2018-03-19T19:57:04.672Z,100160.91
2018-03-19T19:59:33.887Z,100158.35
2018-03-19T20:02:03.091Z,100168.97
2018-03-19T20:04:32.333Z,100171.97
2018-03-19T20:07:02.327Z,100163.95
2018-03-19T20:09:32.548Z,100168.02
2018-03-19T20:12:01.766Z,100166.27
2018-03-19T20:14:31.791Z,100169.43
2018-03-19T20:17:01.129Z,100173.93
2018-03-19T20:19:30.335Z,100173.93
2018-03-19T20:21:59.548Z,100173.22
2018-03-19T20:24:28.827Z,100185.63
2018-03-19T20:26:58.059Z,100178.01
2018-03-19T20:29:27.315Z,100185.36
2018-03-19T20:31:56.545Z,100178.66
2018-03-19T20:34:25.804Z,100181.84
2018-03-19T20:36:55.976Z,100182.03
2018-03-19T20:39:25.234Z,100184.78
2018-03-19T20:41:54.464Z,100188.20
2018-03-19T20:44:25.303Z,100188.20
2018-03-19T20:46:54.803Z,100193.41
2018-03-19T20:49:24.074Z,100185.52
2018-03-19T20:51:53.356Z,100191.50
2018-03-19T20:54:22.649Z,100192.91
2018-03-19T20:56:51.850Z,100189.16
2018-03-19T20:59:21.039Z,100186.81
2018-03-19T21:01:50.277Z,100185.72
2018-03-19T21:04:19.510Z,100186.20
2018-03-19T21:06:49.531Z,100187.30
2018-03-19T21:09:20.140Z,100188.06
2018-03-19T21:11:49.394Z,100186.84
2018-03-19T21:14:18.631Z,100188.10
2018-03-19T21:16:47.891Z,100191.17
2018-03-19T21:19:17.112Z,100190.55
2018-03-19T21:21:46.344Z,100194.17
2018-03-19T21:24:16.323Z,100193.45
2018-03-19T21:26:45.599Z,100197.84
2018-03-19T21:29:14.807Z,100201.27
2018-03-19T21:31:44.076Z,100202.39
2018-03-19T21:34:13.451Z,100203.51
2018-03-19T21:36:43.479Z,100198.02
2018-03-19T21:39:13.490Z,100198.74
2018-03-19T21:41:43.533Z,100192.95
2018-03-19T21:44:13.523Z,100190.57
2018-03-19T21:46:43.527Z,100195.90
2018-03-19T21:49:12.984Z,100186.73
2018-03-19T21:51:42.274Z,100190.36
2018-03-19T21:54:12.267Z,100186.58
2018-03-19T21:56:41.510Z,100199.31
2018-03-19T21:59:10.792Z,100192.78
2018-03-19T22:01:40.043Z,100189.00
2018-03-19T22:04:09.308Z,100186.80
2018-03-19T22:06:38.541Z,100192.91
2018-03-19T22:09:07.800Z,100191.73
2018-03-19T22:11:36.990Z,100191.73
2018-03-19T22:14:06.226Z,100189.78
2018-03-19T22:16:35.451Z,100191.02
2018-03-19T22:19:05.482Z,100194.95
2018-03-19T22:21:34.727Z,100193.63
2018-03-19T22:24:03.956Z,100193.59
2018-03-19T22:26:33.259Z,100196.74
2018-03-19T22:29:03.261Z,100195.38
2018-03-19T22:31:32.597Z,100194.98
2018-03-19T22:34:01.810Z,100193.83
2018-03-19T22:36:31.068Z,100197.16
2018-03-19T22:39:00.279Z,100187.28
2018-03-19T22:41:29.588Z,100181.62
2018-03-19T22:43:58.806Z,100179.85
2018-03-19T22:46:28.110Z,100192.94
2018-03-19T22:48:57.337Z,100183.53
2018-03-19T22:51:27.696Z,100185.95
2018-03-19T22:53:56.971Z,100184.25
2018-03-19T22:56:26.327Z,100180.94
2018-03-19T22:58:55.575Z,100180.70
2018-03-19T23:01:24.823Z,100181.19
2018-03-19T23:03:54.112Z,100179.20
2018-03-19T23:06:23.357Z,100182.10
2018-03-19T23:08:52.601Z,100177.42
2018-03-19T23:11:22.748Z,100177.77
2018-03-19T23:13:51.978Z,100173.84
2018-03-19T23:16:21.202Z,100163.06
2018-03-19T23:18:51.210Z,100162.80
2018-03-19T23:21:21.209Z,100168.98
2018-03-19T23:23:50.443Z,100172.45
2018-03-19T23:26:20.035Z,100178.23
2018-03-19T23:28:49.312Z,100175.73
2018-03-19T23:31:19.334Z,100178.23
2018-03-19T23:33:48.574Z,100175.23
2018-03-19T23:36:17.842Z,100174.59
2018-03-19T23:38:47.895Z,100170.14
2018-03-19T23:41:17.138Z,100173.73
2018-03-19T23:43:46.397Z,100176.89
2018-03-19T23:46:15.668Z,100165.90
2018-03-19T23:48:44.945Z,100164.97
2018-03-19T23:51:14.162Z,100165.86
2018-03-19T23:53:44.296Z,100171.30
2018-03-19T23:56:13.558Z,100169.91
2018-03-19T23:58:42.812Z,100159.11
